Time;durP1;ratioP1;P1;durP2;ratioP2;P2;SDS_P1;SDS_P2;PMS_P1;PMS_P2;Temp;Humidity;BMP_temperature;BMP_pressure;BME280_temperature;BME280_humidity;BME280_pressure;Samples;Min_cycle;Max_cycle;Signal;HPM_P1;HPM_P2
2023/04/19 00:00:30;;;;;;;22.83;14.30;;;;;;;;;;5001487;28;20468;-43
2023/04/19 00:02:56;;;;;;;20.37;14.37;;;;;;;;;;5023561;28;20491;-44
2023/04/19 00:05:23;;;;;;;23.17;15.10;;;;;;;;;;5019822;28;20520;-43
2023/04/19 00:07:50;;;;;;;24.00;16.57;;;;;;;;;;5017336;28;20425;-43
2023/04/19 00:10:16;;;;;;;22.10;15.93;;;;;;;;;;5022274;28;20406;-43
2023/04/19 00:12:42;;;;;;;20.93;14.97;;;;;;;;;;5014539;28;20407;-45
2023/04/19 00:15:08;;;;;;;19.90;16.30;;;;;;;;;;5019032;28;20949;-43
2023/04/19 00:17:34;;;;;;;23.53;14.73;;;;;;;;;;5019643;28;20439;-43
2023/04/19 00:20:00;;;;;;;23.20;14.33;;;;;;;;;;5023776;28;20497;-43
2023/04/19 00:22:26;;;;;;;22.00;14.87;;;;;;;;;;5016274;28;20410;-43
2023/04/19 00:24:52;;;;;;;23.00;15.80;;;;;;;;;;5013314;28;20408;-43
2023/04/19 00:27:18;;;;;;;21.60;14.93;;;;;;;;;;5019582;28;20418;-44
2023/04/19 00:29:44;;;;;;;20.20;14.30;;;;;;;;;;5015296;28;20414;-44
2023/04/19 00:32:10;;;;;;;20.20;15.03;;;;;;;;;;5020778;28;20416;-44
2023/04/19 00:34:36;;;;;;;23.50;15.93;;;;;;;;;;5026265;28;20453;-46
2023/04/19 00:37:05;;;;;;;22.50;15.73;;;;;;;;;;5027106;28;20437;-45
2023/04/19 00:39:31;;;;;;;20.87;15.27;;;;;;;;;;5024045;28;20825;-45
2023/04/19 00:41:57;;;;;;;22.13;14.40;;;;;;;;;;5018196;28;20422;-44
2023/04/19 00:44:23;;;;;;;23.37;16.33;;;;;;;;;;5029532;28;20410;-44
2023/04/19 00:46:50;;;;;;;19.63;15.00;;;;;;;;;;5026773;28;20409;-45
2023/04/19 00:49:16;;;;;;;26.77;16.23;;;;;;;;;;5028250;28;20438;-45
2023/04/19 00:51:42;;;;;;;23.87;17.70;;;;;;;;;;5022165;28;20427;-44
2023/04/19 00:54:08;;;;;;;20.70;15.80;;;;;;;;;;5023987;28;20516;-45
2023/04/19 00:56:35;;;;;;;20.80;15.67;;;;;;;;;;5018104;28;20410;-44
2023/04/19 00:59:01;;;;;;;21.70;15.60;;;;;;;;;;5028162;28;20472;-45
2023/04/19 01:01:27;;;;;;;22.93;15.90;;;;;;;;;;5026122;28;20414;-44
2023/04/19 01:03:54;;;;;;;23.53;15.57;;;;;;;;;;5025756;28;20443;-44
2023/04/19 01:06:20;;;;;;;23.33;16.03;;;;;;;;;;5028077;28;20421;-45
2023/04/19 01:08:46;;;;;;;23.07;15.23;;;;;;;;;;5020996;28;20426;-45
2023/04/19 01:11:13;;;;;;;24.30;16.53;;;;;;;;;;5021160;28;20839;-44
2023/04/19 01:13:40;;;;;;;23.13;16.70;;;;;;;;;;5030309;28;20411;-44
2023/04/19 01:16:06;;;;;;;22.93;16.30;;;;;;;;;;5030282;28;20414;-44
2023/04/19 01:18:36;;;;;;;21.63;15.30;;;;;;;;;;5024119;28;20450;-43
2023/04/19 01:21:02;;;;;;;19.47;15.30;;;;;;;;;;5019027;28;20408;-44
2023/04/19 01:23:28;;;;;;;21.73;14.97;;;;;;;;;;5022175;28;20412;-44
2023/04/19 01:25:54;;;;;;;25.43;15.87;;;;;;;;;;5022451;28;20407;-44
2023/04/19 01:28:20;;;;;;;22.43;15.90;;;;;;;;;;5029494;28;20487;-44
2023/04/19 01:30:49;;;;;;;20.50;15.30;;;;;;;;;;5026532;28;20888;-44
2023/04/19 01:33:15;;;;;;;24.23;15.97;;;;;;;;;;5026289;28;20496;-44
2023/04/19 01:35:41;;;;;;;21.40;15.20;;;;;;;;;;5021936;28;20495;-44
2023/04/19 01:38:07;;;;;;;21.00;14.40;;;;;;;;;;5015558;28;20570;-43
2023/04/19 01:40:33;;;;;;;16.70;12.83;;;;;;;;;;5027443;28;20988;-44
2023/04/19 01:43:00;;;;;;;22.47;12.87;;;;;;;;;;5024812;28;20422;-43
2023/04/19 01:45:26;;;;;;;18.60;13.07;;;;;;;;;;5026212;28;20414;-45
2023/04/19 01:47:52;;;;;;;15.97;12.80;;;;;;;;;;5019191;28;20481;-44
2023/04/19 01:50:18;;;;;;;14.90;11.27;;;;;;;;;;5020692;28;20415;-45
2023/04/19 01:52:44;;;;;;;20.53;12.83;;;;;;;;;;5015358;28;20419;-44
2023/04/19 01:55:10;;;;;;;22.00;13.23;;;;;;;;;;5023644;28;20835;-44
2023/04/19 01:57:36;;;;;;;18.50;12.60;;;;;;;;;;5024729;28;20440;-44
2023/04/19 02:00:02;;;;;;;20.63;13.73;;;;;;;;;;5018895;28;20462;-44
2023/04/19 02:02:28;;;;;;;16.83;11.50;;;;;;;;;;5022045;28;20494;-44
2023/04/19 02:04:54;;;;;;;16.23;10.90;;;;;;;;;;5019252;28;20431;-45
2023/04/19 02:07:20;;;;;;;14.57;10.37;;;;;;;;;;5017039;28;20427;-44
2023/04/19 02:09:46;;;;;;;17.00;12.03;;;;;;;;;;5024560;28;20434;-44
2023/04/19 02:12:12;;;;;;;14.70;10.80;;;;;;;;;;5021873;28;20426;-44
2023/04/19 02:14:38;;;;;;;17.00;10.47;;;;;;;;;;5021142;28;20782;-43
2023/04/19 02:17:04;;;;;;;10.50;9.40;;;;;;;;;;5015497;28;20439;-44
2023/04/19 02:19:30;;;;;;;13.40;10.30;;;;;;;;;;5018713;28;20467;-44
2023/04/19 02:21:56;;;;;;;12.67;9.83;;;;;;;;;;5018668;28;20522;-44
2023/04/19 02:24:25;;;;;;;16.93;8.27;;;;;;;;;;5025640;28;20402;-44
2023/04/19 02:26:51;;;;;;;12.93;8.83;;;;;;;;;;5010972;28;20425;-44
2023/04/19 02:29:17;;;;;;;10.67;8.60;;;;;;;;;;5016796;28;20505;-43
2023/04/19 02:31:45;;;;;;;11.00;8.77;;;;;;;;;;5015327;28;20415;-44
2023/04/19 02:34:11;;;;;;;14.87;9.63;;;;;;;;;;5017802;28;20791;-44
2023/04/19 02:36:37;;;;;;;10.80;8.30;;;;;;;;;;5025112;28;20472;-43
2023/04/19 02:39:04;;;;;;;13.03;9.20;;;;;;;;;;5020921;28;20473;-44
2023/04/19 02:41:30;;;;;;;10.83;9.40;;;;;;;;;;5011452;28;20422;-44
2023/04/19 02:43:56;;;;;;;8.50;7.50;;;;;;;;;;5018924;28;20430;-44
2023/04/19 02:46:22;;;;;;;9.63;7.60;;;;;;;;;;5019697;28;20408;-44
2023/04/19 02:48:48;;;;;;;13.33;8.87;;;;;;;;;;5015718;28;20450;-44
2023/04/19 02:51:15;;;;;;;11.30;7.73;;;;;;;;;;5022139;28;20422;-44
2023/04/19 02:53:41;;;;;;;10.67;7.90;;;;;;;;;;5024788;28;20414;-44
2023/04/19 02:56:07;;;;;;;10.80;6.60;;;;;;;;;;5017933;28;20469;-44
2023/04/19 02:58:33;;;;;;;7.33;6.30;;;;;;;;;;5020546;28;20508;-44
2023/04/19 03:00:59;;;;;;;8.50;7.47;;;;;;;;;;5019581;28;20411;-44
2023/04/19 03:03:25;;;;;;;7.27;5.90;;;;;;;;;;5014953;28;20413;-44
2023/04/19 03:05:51;;;;;;;8.30;6.87;;;;;;;;;;5012825;28;20412;-44
2023/04/19 03:08:17;;;;;;;9.47;6.70;;;;;;;;;;5018818;28;20431;-45
2023/04/19 03:10:43;;;;;;;6.53;5.87;;;;;;;;;;5021473;28;20413;-44
2023/04/19 03:13:10;;;;;;;8.37;6.03;;;;;;;;;;5013337;28;20811;-44
2023/04/19 03:15:36;;;;;;;9.63;5.83;;;;;;;;;;5016636;28;20912;-44
2023/04/19 03:18:03;;;;;;;7.20;6.20;;;;;;;;;;5017844;28;20895;-44
2023/04/19 03:20:29;;;;;;;8.80;5.53;;;;;;;;;;5018922;28;20549;-44
2023/04/19 03:22:55;;;;;;;8.97;6.17;;;;;;;;;;5020989;28;20431;-45
2023/04/19 03:25:21;;;;;;;7.77;6.27;;;;;;;;;;5022225;28;20442;-44
2023/04/19 03:27:47;;;;;;;7.53;5.40;;;;;;;;;;5018413;28;20434;-44
2023/04/19 03:30:13;;;;;;;8.60;6.60;;;;;;;;;;5017943;28;20464;-45
2023/04/19 03:32:39;;;;;;;8.13;6.57;;;;;;;;;;5011436;28;20970;-44
2023/04/19 03:35:05;;;;;;;6.77;5.67;;;;;;;;;;5018902;28;20416;-44
2023/04/19 03:37:31;;;;;;;8.17;5.70;;;;;;;;;;5023974;28;20442;-44
2023/04/19 03:39:57;;;;;;;8.00;6.40;;;;;;;;;;5020530;28;20465;-44
2023/04/19 03:42:23;;;;;;;8.17;6.63;;;;;;;;;;5015222;28;20447;-44
2023/04/19 03:44:49;;;;;;;6.27;5.63;;;;;;;;;;5015400;28;20418;-44
2023/04/19 03:47:15;;;;;;;7.40;6.37;;;;;;;;;;5007659;28;20796;-44
2023/04/19 03:49:41;;;;;;;7.60;5.67;;;;;;;;;;5022569;28;20410;-44
2023/04/19 03:52:07;;;;;;;7.00;5.50;;;;;;;;;;5017013;28;20930;-44
2023/04/19 03:54:33;;;;;;;7.33;5.67;;;;;;;;;;5020035;28;20920;-44
2023/04/19 03:56:59;;;;;;;6.10;5.33;;;;;;;;;;5018338;28;20415;-44
2023/04/19 03:59:26;;;;;;;7.53;5.50;;;;;;;;;;5015210;28;20458;-44
2023/04/19 04:01:52;;;;;;;6.20;5.67;;;;;;;;;;5011941;28;20782;-44
2023/04/19 04:04:18;;;;;;;7.73;5.30;;;;;;;;;;5018938;28;20412;-44
2023/04/19 04:06:44;;;;;;;6.90;5.07;;;;;;;;;;5020878;28;20833;-44
2023/04/19 04:09:10;;;;;;;6.47;5.77;;;;;;;;;;5009520;28;20467;-44
2023/04/19 04:11:37;;;;;;;6.60;5.90;;;;;;;;;;5015177;28;20467;-44
2023/04/19 04:14:03;;;;;;;7.30;5.90;;;;;;;;;;5017153;28;20417;-45
2023/04/19 04:16:29;;;;;;;6.43;5.50;;;;;;;;;;5013527;28;20434;-44
2023/04/19 04:18:55;;;;;;;5.83;5.33;;;;;;;;;;5018730;28;20507;-44
2023/04/19 04:21:23;;;;;;;6.10;4.73;;;;;;;;;;5021334;28;20469;-44
2023/04/19 04:23:49;;;;;;;6.10;4.77;;;;;;;;;;5018171;28;20411;-44
2023/04/19 04:26:15;;;;;;;5.07;4.57;;;;;;;;;;5010916;28;20828;-44
2023/04/19 04:28:41;;;;;;;7.60;5.77;;;;;;;;;;5008109;28;20534;-44
2023/04/19 04:31:08;;;;;;;6.33;5.73;;;;;;;;;;5015114;28;20438;-44
2023/04/19 04:33:34;;;;;;;7.47;5.23;;;;;;;;;;5015799;28;20406;-43
2023/04/19 04:36:01;;;;;;;11.43;6.67;;;;;;;;;;5007371;28;20622;-44
2023/04/19 04:38:27;;;;;;;7.37;5.73;;;;;;;;;;5021472;28;20858;-44
2023/04/19 04:40:54;;;;;;;7.00;5.80;;;;;;;;;;5016350;28;20431;-44
2023/04/19 04:43:24;;;;;;;5.47;4.97;;;;;;;;;;5019374;28;20779;-44
2023/04/19 04:45:50;;;;;;;7.03;5.70;;;;;;;;;;5021237;28;20497;-43
2023/04/19 04:48:16;;;;;;;5.83;5.23;;;;;;;;;;5013621;28;20608;-44
2023/04/19 04:50:43;;;;;;;7.43;5.97;;;;;;;;;;5010713;28;20419;-44
2023/04/19 04:53:11;;;;;;;7.03;6.03;;;;;;;;;;5016131;28;20453;-43
2023/04/19 04:55:37;;;;;;;5.77;5.20;;;;;;;;;;5016216;28;20422;-44
2023/04/19 04:58:06;;;;;;;6.07;5.50;;;;;;;;;;5012093;28;20940;-44
2023/04/19 05:00:32;;;;;;;7.70;6.87;;;;;;;;;;5013236;28;20528;-44
2023/04/19 05:02:58;;;;;;;6.67;5.87;;;;;;;;;;5025577;28;20411;-44
2023/04/19 05:05:25;;;;;;;7.77;6.93;;;;;;;;;;5011556;28;20413;-43
2023/04/19 05:07:51;;;;;;;6.53;5.87;;;;;;;;;;5017973;28;20441;-44
2023/04/19 05:10:17;;;;;;;8.33;6.47;;;;;;;;;;5021423;28;20593;-44
2023/04/19 05:12:43;;;;;;;7.07;6.37;;;;;;;;;;5016208;28;20431;-43
2023/04/19 05:15:10;;;;;;;8.53;7.07;;;;;;;;;;5010078;28;20429;-44
2023/04/19 05:17:36;;;;;;;5.93;5.33;;;;;;;;;;5011965;28;20450;-43
2023/04/19 05:20:04;;;;;;;8.27;6.13;;;;;;;;;;5016270;28;20953;-44
2023/04/19 05:22:30;;;;;;;9.53;6.73;;;;;;;;;;5025613;28;20394;-44
2023/04/19 05:24:56;;;;;;;9.40;6.33;;;;;;;;;;5020511;28;20925;-43
2023/04/19 05:27:22;;;;;;;8.00;5.77;;;;;;;;;;5021707;28;20783;-44
2023/04/19 05:29:50;;;;;;;9.83;6.37;;;;;;;;;;5018158;28;20819;-43
2023/04/19 05:32:16;;;;;;;7.50;6.37;;;;;;;;;;5009976;28;20409;-44
2023/04/19 05:34:42;;;;;;;8.03;6.20;;;;;;;;;;5024902;28;20413;-44
2023/04/19 05:37:08;;;;;;;7.90;6.60;;;;;;;;;;5021166;28;20466;-43
2023/04/19 05:39:34;;;;;;;10.40;7.00;;;;;;;;;;5021660;28;20468;-45
2023/04/19 05:42:00;;;;;;;9.43;6.40;;;;;;;;;;5023245;28;20404;-44
2023/04/19 05:44:26;;;;;;;8.97;6.40;;;;;;;;;;5018372;28;20456;-44
2023/04/19 05:46:52;;;;;;;9.63;7.23;;;;;;;;;;5014477;28;20457;-44
2023/04/19 05:49:18;;;;;;;7.60;6.50;;;;;;;;;;5021941;28;20457;-45
2023/04/19 05:51:44;;;;;;;8.40;5.63;;;;;;;;;;5023883;28;20972;-44
2023/04/19 05:54:12;;;;;;;9.40;6.37;;;;;;;;;;5017934;28;20420;-43
2023/04/19 05:56:38;;;;;;;7.10;6.03;;;;;;;;;;5021045;28;20826;-44
2023/04/19 05:59:05;;;;;;;8.03;7.00;;;;;;;;;;5020853;28;20469;-44
2023/04/19 06:01:34;;;;;;;10.73;7.37;;;;;;;;;;5015396;28;20431;-46
2023/04/19 06:04:00;;;;;;;10.73;6.57;;;;;;;;;;5022441;28;20781;-44
2023/04/19 06:06:26;;;;;;;7.40;6.70;;;;;;;;;;5024846;28;20419;-45
2023/04/19 06:08:52;;;;;;;11.50;6.50;;;;;;;;;;5017852;28;20486;-45
2023/04/19 06:11:18;;;;;;;10.90;7.40;;;;;;;;;;5019400;28;20782;-45
2023/04/19 06:13:44;;;;;;;14.10;8.27;;;;;;;;;;5023496;28;20435;-44
2023/04/19 06:16:10;;;;;;;8.47;7.47;;;;;;;;;;5023756;28;20944;-45
2023/04/19 06:18:37;;;;;;;10.40;6.60;;;;;;;;;;5025680;28;20465;-43
2023/04/19 06:21:03;;;;;;;9.10;7.27;;;;;;;;;;5021467;28;20404;-44
2023/04/19 06:23:29;;;;;;;8.17;6.00;;;;;;;;;;5020628;28;20410;-44
2023/04/19 06:25:54;;;;;;;8.40;6.17;;;;;;;;;;5019344;28;21122;-44
2023/04/19 06:28:20;;;;;;;8.77;6.80;;;;;;;;;;5026113;28;20499;-45
2023/04/19 06:30:47;;;;;;;7.70;4.90;;;;;;;;;;5010800;28;20525;-44
2023/04/19 06:33:13;;;;;;;7.20;6.07;;;;;;;;;;5014914;28;20794;-44
2023/04/19 06:35:39;;;;;;;10.37;6.10;;;;;;;;;;5015211;28;20411;-44
2023/04/19 06:38:05;;;;;;;8.13;5.23;;;;;;;;;;5020291;28;20864;-44
2023/04/19 06:40:31;;;;;;;8.30;5.20;;;;;;;;;;5014135;28;20473;-44
2023/04/19 06:42:57;;;;;;;7.40;4.80;;;;;;;;;;5015403;28;20422;-44
2023/04/19 06:45:23;;;;;;;12.57;6.50;;;;;;;;;;5020884;28;20403;-44
2023/04/19 06:47:49;;;;;;;7.20;5.53;;;;;;;;;;5023702;28;20438;-44
2023/04/19 06:50:15;;;;;;;4.97;4.07;;;;;;;;;;5014274;28;20501;-44
2023/04/19 06:52:41;;;;;;;5.63;5.13;;;;;;;;;;5019609;28;20498;-44
2023/04/19 06:55:07;;;;;;;5.77;5.17;;;;;;;;;;5023868;28;20790;-44
2023/04/19 06:57:33;;;;;;;6.93;4.77;;;;;;;;;;5017809;28;20521;-44
2023/04/19 06:59:59;;;;;;;11.00;4.70;;;;;;;;;;5012343;28;20470;-44
2023/04/19 07:02:25;;;;;;;7.17;5.33;;;;;;;;;;5016379;28;20415;-44
2023/04/19 07:04:51;;;;;;;5.23;4.80;;;;;;;;;;5016855;28;20407;-44
2023/04/19 07:07:17;;;;;;;7.10;5.30;;;;;;;;;;5024461;28;20497;-44
2023/04/19 07:09:43;;;;;;;5.50;5.00;;;;;;;;;;5020420;28;20427;-44
2023/04/19 07:12:09;;;;;;;7.90;5.20;;;;;;;;;;5016586;28;20434;-44
2023/04/19 07:14:35;;;;;;;6.50;4.53;;;;;;;;;;5014126;28;20413;-44
2023/04/19 07:17:03;;;;;;;5.17;4.30;;;;;;;;;;5008997;28;20416;-44
2023/04/19 07:19:30;;;;;;;6.57;4.73;;;;;;;;;;5023351;28;20461;-44
2023/04/19 07:21:56;;;;;;;6.70;4.30;;;;;;;;;;5018079;28;20417;-45
2023/04/19 07:24:22;;;;;;;8.13;4.67;;;;;;;;;;5024216;28;20403;-44
2023/04/19 07:26:48;;;;;;;7.67;5.00;;;;;;;;;;5016801;28;20412;-44
2023/04/19 07:29:14;;;;;;;7.57;4.50;;;;;;;;;;5014322;28;20438;-44
2023/04/19 07:31:40;;;;;;;7.20;4.10;;;;;;;;;;5011237;28;20429;-44
2023/04/19 07:34:07;;;;;;;4.87;4.00;;;;;;;;;;5021555;28;20480;-44
2023/04/19 07:36:34;;;;;;;7.87;5.40;;;;;;;;;;5020828;28;20857;-43
2023/04/19 07:39:00;;;;;;;4.40;3.67;;;;;;;;;;5015253;28;20532;-43
2023/04/19 07:41:26;;;;;;;5.77;4.90;;;;;;;;;;5021237;28;20402;-43
2023/04/19 07:43:52;;;;;;;5.07;3.90;;;;;;;;;;5019907;28;20439;-43
2023/04/19 07:46:18;;;;;;;6.90;4.37;;;;;;;;;;5013749;28;20488;-43
2023/04/19 07:48:45;;;;;;;3.90;3.60;;;;;;;;;;5019529;28;20482;-42
2023/04/19 07:51:11;;;;;;;8.07;4.27;;;;;;;;;;5023173;28;20435;-44
2023/04/19 07:53:38;;;;;;;6.63;3.80;;;;;;;;;;5014057;28;20391;-44
2023/04/19 07:56:05;;;;;;;5.93;4.90;;;;;;;;;;5014332;28;20387;-43
2023/04/19 07:58:31;;;;;;;4.73;3.80;;;;;;;;;;5017777;28;20422;-43
2023/04/19 08:00:57;;;;;;;6.90;4.30;;;;;;;;;;5016769;28;20554;-44
2023/04/19 08:03:23;;;;;;;4.30;3.90;;;;;;;;;;5023194;28;20381;-44
2023/04/19 08:05:49;;;;;;;3.80;3.40;;;;;;;;;;5019235;28;20393;-43
2023/04/19 08:08:15;;;;;;;4.13;3.60;;;;;;;;;;5019919;28;20461;-44
2023/04/19 08:10:41;;;;;;;4.33;3.70;;;;;;;;;;5014823;28;20761;-43
2023/04/19 08:13:07;;;;;;;6.77;3.70;;;;;;;;;;5008121;28;20421;-44
2023/04/19 08:15:34;;;;;;;6.07;3.20;;;;;;;;;;5022960;28;20499;-44
2023/04/19 08:18:00;;;;;;;6.80;4.27;;;;;;;;;;5018453;28;20445;-44
2023/04/19 08:20:26;;;;;;;4.37;3.93;;;;;;;;;;5022647;28;20449;-44
2023/04/19 08:22:53;;;;;;;5.10;4.10;;;;;;;;;;5016338;28;20430;-43
2023/04/19 08:25:20;;;;;;;6.50;4.07;;;;;;;;;;5011850;28;20426;-43
2023/04/19 08:27:47;;;;;;;6.07;3.40;;;;;;;;;;5016407;28;20504;-45
2023/04/19 08:30:13;;;;;;;3.63;3.30;;;;;;;;;;5019810;28;20914;-43
2023/04/19 08:32:39;;;;;;;5.50;3.60;;;;;;;;;;5020586;28;20422;-43
2023/04/19 08:35:07;;;;;;;6.10;3.90;;;;;;;;;;5015009;28;20418;-43
2023/04/19 08:37:33;;;;;;;3.60;3.27;;;;;;;;;;5017540;28;20440;-44
2023/04/19 08:39:58;;;;;;;3.87;3.43;;;;;;;;;;5017641;28;20462;-45
2023/04/19 08:42:25;;;;;;;4.17;3.53;;;;;;;;;;5011858;28;20403;-44
2023/04/19 08:44:51;;;;;;;5.60;3.30;;;;;;;;;;5019030;28;20453;-44
2023/04/19 08:47:18;;;;;;;7.27;3.23;;;;;;;;;;5022858;28;20442;-44
2023/04/19 08:49:45;;;;;;;5.33;3.07;;;;;;;;;;5022507;28;20409;-44
2023/04/19 08:52:13;;;;;;;4.50;3.30;;;;;;;;;;5011172;28;20412;-43
2023/04/19 08:54:41;;;;;;;2.93;2.70;;;;;;;;;;5014923;28;20577;-43
2023/04/19 08:57:08;;;;;;;4.80;3.43;;;;;;;;;;5024585;28;20743;-43
2023/04/19 08:59:34;;;;;;;2.93;2.63;;;;;;;;;;5027334;28;20506;-44
2023/04/19 09:02:01;;;;;;;2.53;2.33;;;;;;;;;;5021170;28;20418;-45
2023/04/19 09:04:27;;;;;;;5.03;3.03;;;;;;;;;;5021781;28;20557;-44
2023/04/19 09:06:53;;;;;;;4.80;3.20;;;;;;;;;;5020164;28;20507;-44
2023/04/19 09:09:21;;;;;;;3.00;2.80;;;;;;;;;;5004365;28;20414;-44
2023/04/19 09:11:47;;;;;;;2.87;2.67;;;;;;;;;;5025422;28;20420;-45
2023/04/19 09:14:16;;;;;;;4.33;2.70;;;;;;;;;;5022092;28;20423;-43
2023/04/19 09:16:42;;;;;;;4.63;3.00;;;;;;;;;;5022095;28;20427;-43
2023/04/19 09:19:08;;;;;;;4.20;2.50;;;;;;;;;;5023915;28;20462;-43
2023/04/19 09:21:35;;;;;;;2.60;2.50;;;;;;;;;;5017429;28;20790;-44
2023/04/19 09:24:01;;;;;;;3.00;2.80;;;;;;;;;;5013490;28;20527;-43
2023/04/19 09:26:30;;;;;;;2.80;2.60;;;;;;;;;;5024401;28;20424;-43
2023/04/19 09:28:57;;;;;;;3.07;2.30;;;;;;;;;;5023882;28;20792;-44
2023/04/19 09:31:27;;;;;;;3.77;2.77;;;;;;;;;;5018589;28;20403;-43
2023/04/19 09:33:53;;;;;;;2.40;2.23;;;;;;;;;;5015591;28;20399;-43
2023/04/19 09:36:30;;;;;;;2.40;2.20;;;;;;;;;;5020532;28;20454;-44
2023/04/19 09:38:56;;;;;;;2.43;2.33;;;;;;;;;;5019361;28;20433;-44
2023/04/19 09:41:22;;;;;;;3.10;2.80;;;;;;;;;;5025995;28;20843;-46
2023/04/19 09:43:48;;;;;;;2.93;2.70;;;;;;;;;;5024145;28;20418;-44
2023/04/19 09:46:33;;;;;;;3.47;2.63;;;;;;;;;;5019756;28;20500;-44
2023/04/19 09:49:14;;;;;;;2.43;2.33;;;;;;;;;;5025312;28;20512;-43
2023/04/19 09:51:41;;;;;;;3.13;2.93;;;;;;;;;;5014207;28;20930;-43
2023/04/19 09:54:07;;;;;;;4.30;3.33;;;;;;;;;;5017951;28;20787;-44
2023/04/19 09:56:35;;;;;;;3.53;3.10;;;;;;;;;;5022118;28;20437;-43
2023/04/19 09:59:02;;;;;;;2.53;2.33;;;;;;;;;;5019574;28;20469;-44
2023/04/19 10:01:29;;;;;;;2.80;2.50;;;;;;;;;;5020346;28;20393;-43
2023/04/19 10:03:56;;;;;;;2.80;2.60;;;;;;;;;;5014387;28;20403;-44
2023/04/19 10:06:22;;;;;;;3.70;3.20;;;;;;;;;;4994504;28;20433;-43
2023/04/19 10:08:49;;;;;;;3.77;2.73;;;;;;;;;;4994555;28;20932;-44
2023/04/19 10:11:17;;;;;;;4.20;2.87;;;;;;;;;;5025254;28;20423;-45
2023/04/19 10:13:43;;;;;;;5.63;3.20;;;;;;;;;;5021107;28;20497;-43
2023/04/19 10:16:10;;;;;;;3.07;2.73;;;;;;;;;;5015081;28;20425;-45
2023/04/19 10:18:36;;;;;;;3.03;2.70;;;;;;;;;;5016075;28;20436;-45
2023/04/19 10:21:05;;;;;;;2.90;2.70;;;;;;;;;;5020305;28;20613;-44
2023/04/19 10:23:32;;;;;;;3.50;3.20;;;;;;;;;;5023382;28;20414;-44
2023/04/19 10:25:58;;;;;;;2.90;2.70;;;;;;;;;;5021176;28;20477;-43
2023/04/19 10:28:25;;;;;;;4.13;3.10;;;;;;;;;;5027116;28;20437;-44
2023/04/19 10:30:55;;;;;;;2.67;2.47;;;;;;;;;;5017343;28;20509;-44
2023/04/19 10:33:27;;;;;;;2.80;2.60;;;;;;;;;;5017334;28;20514;-44
2023/04/19 10:36:00;;;;;;;4.00;2.50;;;;;;;;;;5024853;28;20945;-44
2023/04/19 10:38:59;;;;;;;28.80;10.25;;;;;;;;;;5779241;23;20421;-48
2023/04/19 10:41:45;;;;;;;5.93;3.77;;;;;;;;;;5032733;28;20289;-46
2023/04/19 10:44:11;;;;;;;4.20;3.10;;;;;;;;;;5034739;28;20428;-46
2023/04/19 10:46:41;;;;;;;6.17;3.40;;;;;;;;;;5029273;28;20403;-46
2023/04/19 10:49:08;;;;;;;5.13;2.97;;;;;;;;;;5030018;28;20469;-46
2023/04/19 10:51:37;;;;;;;4.50;3.33;;;;;;;;;;5024035;28;20415;-47
2023/04/19 10:54:29;;;;;;;6.13;3.37;;;;;;;;;;5017848;28;20411;-46
2023/04/19 10:56:59;;;;;;;3.20;2.90;;;;;;;;;;5021924;28;20456;-48
2023/04/19 10:59:27;;;;;;;3.93;3.60;;;;;;;;;;5021488;28;20530;-45
2023/04/19 11:01:54;;;;;;;3.37;3.07;;;;;;;;;;5021815;28;20831;-47
2023/04/19 11:04:44;;;;;;;4.93;3.50;;;;;;;;;;5016471;28;20426;-47
2023/04/19 11:07:10;;;;;;;4.10;3.70;;;;;;;;;;5004678;28;20901;-47
2023/04/19 11:09:41;;;;;;;5.17;3.60;;;;;;;;;;5015529;28;20485;-48
2023/04/19 11:12:13;;;;;;;4.10;3.53;;;;;;;;;;5013131;28;20425;-48
2023/04/19 11:14:39;;;;;;;4.43;3.60;;;;;;;;;;5017307;28;20400;-47
2023/04/19 11:17:17;;;;;;;3.90;3.47;;;;;;;;;;5025487;28;20425;-45
2023/04/19 11:19:54;;;;;;;4.80;4.07;;;;;;;;;;5031554;28;20956;-44
2023/04/19 11:22:31;;;;;;;3.73;3.30;;;;;;;;;;5015088;28;20399;-44
2023/04/19 11:24:57;;;;;;;5.50;4.20;;;;;;;;;;5023577;28;20524;-44
2023/04/19 11:27:24;;;;;;;4.47;3.60;;;;;;;;;;5018709;28;20948;-44
2023/04/19 11:29:50;;;;;;;5.23;3.03;;;;;;;;;;5021488;28;20465;-46
2023/04/19 11:32:16;;;;;;;3.43;3.13;;;;;;;;;;5015497;28;20670;-43
2023/04/19 11:34:42;;;;;;;4.70;2.70;;;;;;;;;;5010470;28;20852;-43
2023/04/19 11:37:10;;;;;;;3.80;3.50;;;;;;;;;;5023575;28;20413;-43
2023/04/19 11:39:44;;;;;;;4.00;3.63;;;;;;;;;;5020592;28;20994;-44
2023/04/19 11:42:17;;;;;;;4.70;4.30;;;;;;;;;;5021430;28;20440;-43
2023/04/19 11:44:48;;;;;;;4.47;4.07;;;;;;;;;;5018559;28;20939;-46
2023/04/19 11:47:14;;;;;;;9.07;3.50;;;;;;;;;;5016978;28;20461;-44
2023/04/19 11:49:40;;;;;;;9.00;3.60;;;;;;;;;;5014626;28;20426;-45
2023/04/19 11:52:06;;;;;;;4.47;4.03;;;;;;;;;;5020249;28;20424;-44
2023/04/19 11:54:32;;;;;;;7.07;3.43;;;;;;;;;;5023897;28;20951;-44
2023/04/19 11:56:58;;;;;;;5.60;4.13;;;;;;;;;;5016626;28;20491;-44
2023/04/19 11:59:24;;;;;;;4.63;3.60;;;;;;;;;;5017025;28;20459;-44
2023/04/19 12:01:50;;;;;;;4.70;4.30;;;;;;;;;;5017375;28;21000;-43
2023/04/19 12:04:16;;;;;;;4.30;3.90;;;;;;;;;;5013993;28;20414;-43
2023/04/19 12:06:42;;;;;;;4.70;4.30;;;;;;;;;;5020481;28;20403;-44
2023/04/19 12:09:08;;;;;;;5.00;3.97;;;;;;;;;;5023790;28;20790;-44
2023/04/19 12:11:45;;;;;;;4.63;4.13;;;;;;;;;;5020965;28;20414;-44
2023/04/19 12:14:12;;;;;;;4.30;3.57;;;;;;;;;;5007247;28;20406;-44
2023/04/19 12:16:38;;;;;;;4.63;4.00;;;;;;;;;;5010233;28;20801;-44
2023/04/19 12:19:13;;;;;;;6.80;4.00;;;;;;;;;;5022999;28;20480;-46
2023/04/19 12:21:39;;;;;;;5.00;4.50;;;;;;;;;;5019815;28;20897;-44
2023/04/19 12:24:05;;;;;;;4.63;4.23;;;;;;;;;;5023826;28;20402;-44
2023/04/19 12:26:31;;;;;;;4.27;3.87;;;;;;;;;;5018005;28;20894;-44
2023/04/19 12:28:58;;;;;;;4.60;4.20;;;;;;;;;;5012478;28;20501;-44
2023/04/19 12:31:24;;;;;;;5.80;4.20;;;;;;;;;;5012458;28;20423;-44
2023/04/19 12:33:51;;;;;;;4.77;4.37;;;;;;;;;;5025479;28;20782;-44
2023/04/19 12:36:16;;;;;;;6.90;4.47;;;;;;;;;;5021726;28;20456;-44
2023/04/19 12:38:42;;;;;;;5.10;4.30;;;;;;;;;;5016086;28;20432;-44
2023/04/19 12:41:08;;;;;;;5.40;4.90;;;;;;;;;;5021396;28;20466;-43
2023/04/19 12:43:34;;;;;;;5.40;4.50;;;;;;;;;;5016175;28;20468;-43
2023/04/19 12:46:00;;;;;;;4.20;3.90;;;;;;;;;;5014710;28;20415;-44
2023/04/19 12:48:27;;;;;;;5.63;4.87;;;;;;;;;;5017297;28;20446;-44
2023/04/19 12:50:53;;;;;;;4.23;3.90;;;;;;;;;;5021150;28;20414;-44
2023/04/19 12:53:20;;;;;;;7.47;4.10;;;;;;;;;;5018731;28;20418;-43
2023/04/19 12:55:47;;;;;;;5.83;5.30;;;;;;;;;;5013271;28;20907;-44
2023/04/19 12:58:14;;;;;;;5.13;4.70;;;;;;;;;;5016551;28;20466;-43
2023/04/19 13:00:40;;;;;;;5.03;4.53;;;;;;;;;;5016840;28;20862;-44
2023/04/19 13:03:06;;;;;;;4.90;4.40;;;;;;;;;;5023487;28;20418;-44
2023/04/19 13:05:32;;;;;;;5.63;4.13;;;;;;;;;;5019089;28;20415;-44
2023/04/19 13:07:59;;;;;;;15.27;4.97;;;;;;;;;;5023759;28;20424;-44
2023/04/19 13:10:25;;;;;;;8.77;4.60;;;;;;;;;;5015776;28;20422;-43
2023/04/19 13:12:51;;;;;;;4.87;4.47;;;;;;;;;;5009841;28;20440;-43
2023/04/19 13:15:17;;;;;;;5.13;4.57;;;;;;;;;;5021357;28;20476;-44
2023/04/19 13:17:43;;;;;;;6.97;4.17;;;;;;;;;;5018577;28;20434;-43
2023/04/19 13:20:09;;;;;;;4.27;3.93;;;;;;;;;;5022208;28;20561;-44
2023/04/19 13:22:35;;;;;;;4.07;3.67;;;;;;;;;;5019030;28;20776;-44
2023/04/19 13:25:01;;;;;;;6.53;4.00;;;;;;;;;;5017974;28;20909;-44
2023/04/19 13:27:27;;;;;;;3.90;3.50;;;;;;;;;;5012945;28;20434;-44
2023/04/19 13:29:54;;;;;;;4.90;4.40;;;;;;;;;;5006443;28;20519;-44
2023/04/19 13:32:20;;;;;;;5.13;4.30;;;;;;;;;;5021326;28;20476;-44
2023/04/19 13:34:46;;;;;;;4.20;3.70;;;;;;;;;;5016462;28;20938;-44
2023/04/19 13:37:12;;;;;;;5.50;4.50;;;;;;;;;;5020438;28;20408;-44
2023/04/19 13:39:38;;;;;;;4.77;4.27;;;;;;;;;;5015777;28;20458;-43
2023/04/19 13:42:04;;;;;;;5.07;3.77;;;;;;;;;;5013531;28;20429;-44
2023/04/19 13:44:31;;;;;;;4.43;4.00;;;;;;;;;;5014003;28;20413;-43
2023/04/19 13:46:57;;;;;;;5.20;3.87;;;;;;;;;;5022171;28;20409;-44
2023/04/19 13:49:23;;;;;;;4.13;3.77;;;;;;;;;;5017329;28;20445;-44
2023/04/19 13:51:49;;;;;;;4.20;3.80;;;;;;;;;;5015761;28;20990;-44
2023/04/19 13:54:18;;;;;;;4.17;3.77;;;;;;;;;;5019919;28;20422;-44
2023/04/19 13:56:44;;;;;;;4.50;4.10;;;;;;;;;;5020049;28;20406;-43
2023/04/19 13:59:10;;;;;;;7.47;4.27;;;;;;;;;;5022311;28;20468;-44
2023/04/19 14:01:36;;;;;;;4.67;4.23;;;;;;;;;;5021295;28;20413;-44
2023/04/19 14:04:02;;;;;;;4.80;3.47;;;;;;;;;;5024538;28;20469;-44
2023/04/19 14:06:28;;;;;;;9.93;4.50;;;;;;;;;;5020038;28;20418;-44
2023/04/19 14:08:54;;;;;;;4.57;4.17;;;;;;;;;;5014159;28;20492;-44
2023/04/19 14:11:20;;;;;;;5.63;4.37;;;;;;;;;;5005347;28;20408;-44
2023/04/19 14:13:47;;;;;;;7.40;4.30;;;;;;;;;;5016489;28;20393;-46
2023/04/19 14:16:13;;;;;;;6.17;4.27;;;;;;;;;;5024966;28;20402;-44
2023/04/19 14:18:39;;;;;;;7.20;4.20;;;;;;;;;;5020631;28;20446;-44
2023/04/19 14:21:05;;;;;;;7.10;4.63;;;;;;;;;;5014430;28;20472;-44
2023/04/19 14:23:32;;;;;;;4.90;4.00;;;;;;;;;;5018629;28;20420;-44
2023/04/19 14:25:58;;;;;;;4.70;3.67;;;;;;;;;;5009169;28;20469;-44
2023/04/19 14:28:24;;;;;;;4.50;4.10;;;;;;;;;;5024059;28;20515;-43
2023/04/19 14:30:51;;;;;;;4.90;3.93;;;;;;;;;;5019549;28;20421;-44
2023/04/19 14:33:16;;;;;;;5.87;3.80;;;;;;;;;;5023004;28;20413;-44
2023/04/19 14:35:43;;;;;;;4.60;2.90;;;;;;;;;;5022747;28;20415;-43